Terminal Aerodrome Forecast
Issued by NWS

Home | Current Version | Previous Version | Text Only | Print | Product List | Glossary On
Versions: 1 2 3 4 5 6 7 8 9 10 11 12 13
000
FTUS44 KLZK 231120
TAFHRO
TAF
KHRO 231120Z 2312/2412 VRB03KT P6SM VCFG SCT250
     FM231400 21006KT P6SM SCT050 SCT250
     FM240100 17004KT P6SM SCT250=

USA.gov is the U.S. government's official web portal to all federal, state and local government web resources and services.